Pittsburgh, Pennsylvania
Traffic Map
Current Weather Conditions
Pittsburgh, Pennsylvania
Clear
Clear
23°
Feels Like: 23°
Wind Chill: 23° Ceiling: Unl
Heat Index: 23° Visibility: 10mi
Dew Point: 13° Wind: 7mph
Humidity: 52% Direction: 290° (WNW)
Pressure: 29.94in Gusts: 0mph
Raw Report DataKAGC 011353Z 29006KT 10SM CLR 23/13 A2994 RMK AO2 SLP135 T02330128
Traffic Incident Summary
Active as of:
Severity:
Category:
InformationThere was an issue retrieving the traffic information for this location. Please try a different location or try again shortly.
Advertisements
Track Severe Weather on mobile